createdAt,value
2023-03-24T00:00:35.570Z,100514.31
2023-03-24T00:03:03.393Z,100524.63
2023-03-24T00:05:32.004Z,100516.06
2023-03-24T00:08:04.645Z,100535.44
2023-03-24T00:10:35.156Z,100501.34
2023-03-24T00:13:03.898Z,100521.91
2023-03-24T00:15:31.402Z,100519.31
2023-03-24T00:18:04.647Z,100526.13
2023-03-24T00:20:33.133Z,100505.47
2023-03-24T00:23:00.366Z,100509.47
2023-03-24T00:25:30.423Z,100532.63
2023-03-24T00:27:58.636Z,100523.69
2023-03-24T00:30:26.329Z,100523.19
2023-03-24T00:32:53.938Z,100530.50
2023-03-24T00:35:21.515Z,100538.59
2023-03-24T00:37:52.322Z,100536.28
2023-03-24T00:40:21.816Z,100548.00
2023-03-24T00:42:50.866Z,100528.03
2023-03-24T00:45:20.710Z,100527.72
2023-03-24T00:47:50.488Z,100537.81
2023-03-24T00:50:20.696Z,100510.22
2023-03-24T00:52:49.393Z,100535.19
2023-03-24T00:55:17.409Z,100537.69
2023-03-24T00:57:52.755Z,100540.53
2023-03-24T01:00:25.954Z,100539.69
2023-03-24T01:02:56.811Z,100545.16
2023-03-24T01:05:31.281Z,100522.03
2023-03-24T01:08:03.971Z,100533.44
2023-03-24T01:10:50.491Z,100521.88
2023-03-24T01:13:19.092Z,100542.03
2023-03-24T01:15:46.762Z,100505.16
2023-03-24T01:18:15.333Z,100544.31
2023-03-24T01:20:49.280Z,100537.00
2023-03-24T01:23:20.159Z,100520.13
2023-03-24T01:25:48.448Z,100549.53
2023-03-24T01:28:18.917Z,100529.50
2023-03-24T01:30:47.713Z,100522.91
2023-03-24T01:33:15.097Z,100508.06
2023-03-24T01:35:42.433Z,100513.19
2023-03-24T01:38:12.063Z,100512.34
2023-03-24T01:40:42.291Z,100511.31
2023-03-24T01:43:36.508Z,100543.44
2023-03-24T01:46:08.276Z,100545.91
2023-03-24T01:49:00.131Z,100529.88
2023-03-24T01:51:43.496Z,100544.91
2023-03-24T01:54:16.785Z,100537.78
2023-03-24T01:56:50.055Z,100526.38
2023-03-24T01:59:23.602Z,100532.81
2023-03-24T02:02:03.615Z,100541.53
2023-03-24T02:04:44.240Z,100512.28
2023-03-24T02:07:18.390Z,100523.97
2023-03-24T02:09:46.335Z,100518.22
2023-03-24T02:12:13.930Z,100513.31
2023-03-24T02:14:42.632Z,100510.19
2023-03-24T02:17:57.832Z,100532.69
2023-03-24T02:20:31.653Z,100542.94
2023-03-24T02:23:14.699Z,100540.53
2023-03-24T02:26:23.257Z,100546.66
2023-03-24T02:29:15.502Z,100547.56
2023-03-24T02:32:01.433Z,100552.84
2023-03-24T02:35:01.541Z,100524.06
2023-03-24T02:37:51.443Z,100527.09
2023-03-24T02:40:37.413Z,100552.59
2023-03-24T02:43:41.542Z,100558.69
2023-03-24T02:46:20.549Z,100514.78
2023-03-24T02:49:02.654Z,100552.34
2023-03-24T02:51:48.638Z,100544.38
2023-03-24T02:54:27.882Z,100554.75
2023-03-24T02:56:58.590Z,100554.91
2023-03-24T02:59:58.084Z,100560.50
2023-03-24T03:02:54.158Z,100556.75
2023-03-24T03:05:34.359Z,100547.13
2023-03-24T03:08:06.272Z,100558.34
2023-03-24T03:10:46.255Z,100553.06
2023-03-24T03:13:31.521Z,100560.00
2023-03-24T03:16:06.039Z,100538.09
2023-03-24T03:18:39.732Z,100567.91
2023-03-24T03:21:13.158Z,100562.94
2023-03-24T03:23:50.108Z,100544.53
2023-03-24T03:26:23.058Z,100541.31
2023-03-24T03:28:58.330Z,100549.78
2023-03-24T03:31:36.319Z,100565.84
2023-03-24T03:34:06.540Z,100567.91
2023-03-24T03:36:42.535Z,100574.03
2023-03-24T03:39:16.335Z,100549.88
2023-03-24T03:41:45.237Z,100558.16
2023-03-24T03:44:12.528Z,100550.88
2023-03-24T03:46:40.118Z,100575.22
2023-03-24T03:49:10.629Z,100567.19
2023-03-24T03:51:38.156Z,100560.75
2023-03-24T03:54:10.411Z,100561.06
2023-03-24T03:56:39.038Z,100573.09
2023-03-24T03:59:28.802Z,100570.94
2023-03-24T04:01:57.425Z,100595.81
2023-03-24T04:05:26.301Z,100517.47
2023-03-24T04:08:08.538Z,100598.56
2023-03-24T04:11:17.641Z,100603.13
2023-03-24T04:14:25.097Z,100605.91
2023-03-24T04:18:06.781Z,100611.16
2023-03-24T04:21:10.473Z,100608.31
2023-03-24T04:23:44.955Z,100588.19
2023-03-24T04:26:34.642Z,100621.78
2023-03-24T04:29:30.039Z,100611.31
2023-03-24T04:32:46.590Z,100616.44
2023-03-24T04:35:32.514Z,100610.56
2023-03-24T04:38:28.859Z,100608.66
2023-03-24T04:41:32.318Z,100597.69
2023-03-24T04:44:13.218Z,100594.38
2023-03-24T04:46:59.391Z,100587.53
2023-03-24T04:49:27.518Z,100603.94
2023-03-24T04:51:55.109Z,100603.22
2023-03-24T04:54:28.337Z,100621.38
2023-03-24T04:57:04.177Z,100603.53
2023-03-24T04:59:40.876Z,100611.13
2023-03-24T05:02:09.480Z,100587.44
2023-03-24T05:04:40.170Z,100594.13
2023-03-24T05:07:21.482Z,100613.25
2023-03-24T05:09:52.491Z,100613.50
2023-03-24T05:12:20.125Z,100603.25
2023-03-24T05:15:07.207Z,100603.44
2023-03-24T05:17:35.955Z,100621.53
2023-03-24T05:20:07.864Z,100616.22
2023-03-24T05:22:37.155Z,100622.47
2023-03-24T05:25:05.958Z,100620.19
2023-03-24T05:27:36.339Z,100610.56
2023-03-24T05:30:16.908Z,100624.69
2023-03-24T05:32:46.134Z,100622.56
2023-03-24T05:35:15.233Z,100641.81
2023-03-24T05:37:44.665Z,100638.47
2023-03-24T05:40:12.498Z,100641.94
2023-03-24T05:42:53.302Z,100619.66
2023-03-24T05:45:25.236Z,100628.72
2023-03-24T05:47:52.672Z,100630.75
2023-03-24T05:50:26.819Z,100653.75
2023-03-24T05:52:54.073Z,100626.50
2023-03-24T05:55:42.767Z,100621.44
2023-03-24T05:58:29.973Z,100634.34
2023-03-24T06:00:58.031Z,100615.81
2023-03-24T06:03:34.827Z,100623.94
2023-03-24T06:06:16.789Z,100635.34
2023-03-24T06:08:47.640Z,100640.97
2023-03-24T06:11:17.010Z,100613.00
2023-03-24T06:13:52.187Z,100635.66
2023-03-24T06:16:24.080Z,100640.63
2023-03-24T06:18:57.717Z,100630.03
2023-03-24T06:22:03.088Z,100630.00
2023-03-24T06:24:34.755Z,100630.97
2023-03-24T06:27:09.173Z,100659.28
2023-03-24T06:29:36.997Z,100668.00
2023-03-24T06:32:05.996Z,100638.16
2023-03-24T06:34:40.802Z,100654.16
2023-03-24T06:37:34.517Z,100634.94
2023-03-24T06:40:04.962Z,100641.13
2023-03-24T06:42:33.960Z,100626.91
2023-03-24T06:45:01.576Z,100654.44
2023-03-24T06:47:30.130Z,100649.28
2023-03-24T06:49:57.310Z,100649.59
2023-03-24T06:52:24.970Z,100644.13
2023-03-24T06:54:54.002Z,100640.41
2023-03-24T06:57:22.571Z,100650.78
2023-03-24T07:00:26.321Z,100657.06
2023-03-24T07:03:04.280Z,100659.13
2023-03-24T07:05:32.754Z,100655.75
2023-03-24T07:10:43.123Z,100639.59
2023-03-24T07:13:11.681Z,100641.91
2023-03-24T07:15:40.733Z,100639.19
2023-03-24T07:18:09.815Z,100640.34
2023-03-24T07:20:43.683Z,100643.22
2023-03-24T07:23:14.530Z,100663.19
2023-03-24T07:25:58.631Z,100668.69
2023-03-24T07:28:41.934Z,100673.31
2023-03-24T07:31:11.191Z,100657.47
2023-03-24T07:33:40.223Z,100655.59
2023-03-24T07:36:09.049Z,100625.50
2023-03-24T07:38:38.445Z,100641.00
2023-03-24T07:41:09.910Z,100622.88
2023-03-24T07:43:41.493Z,100625.94
2023-03-24T07:46:20.370Z,100642.16
2023-03-24T07:48:47.713Z,100630.63
2023-03-24T07:51:18.191Z,100624.03
2023-03-24T07:53:51.666Z,100623.75
2023-03-24T07:56:45.050Z,100621.03
2023-03-24T07:59:13.227Z,100619.25
2023-03-24T08:01:56.639Z,100636.81
2023-03-24T08:04:53.411Z,100639.16
2023-03-24T08:07:41.409Z,100634.84
2023-03-24T08:10:12.706Z,100632.50
2023-03-24T08:12:41.198Z,100626.78
2023-03-24T08:15:09.644Z,100609.06
2023-03-24T08:17:37.046Z,100616.16
2023-03-24T08:20:08.446Z,100613.09
2023-03-24T08:22:37.544Z,100607.56
2023-03-24T08:25:04.946Z,100620.34
2023-03-24T08:27:32.689Z,100612.41
2023-03-24T08:29:59.947Z,100629.06
2023-03-24T08:32:27.100Z,100597.78
2023-03-24T08:34:54.482Z,100601.00
2023-03-24T08:37:22.623Z,100619.28
2023-03-24T08:39:49.796Z,100603.44
2023-03-24T08:42:17.025Z,100588.53
2023-03-24T08:44:44.949Z,100591.00
2023-03-24T08:47:13.155Z,100545.22
2023-03-24T08:49:40.304Z,100597.94
2023-03-24T08:52:08.658Z,100608.53
2023-03-24T08:54:36.864Z,100607.31
2023-03-24T08:57:05.013Z,100592.47
2023-03-24T08:59:32.660Z,100582.72
2023-03-24T09:01:59.997Z,100520.81
2023-03-24T09:04:27.590Z,100580.78
2023-03-24T09:07:02.429Z,100552.44
2023-03-24T09:09:30.776Z,100577.13
2023-03-24T09:11:58.141Z,100570.91
2023-03-24T09:14:25.529Z,100571.38
2023-03-24T09:16:52.849Z,100551.81
2023-03-24T09:19:20.102Z,100554.19
2023-03-24T09:21:48.690Z,100557.28
2023-03-24T09:24:16.069Z,100570.47
2023-03-24T09:26:43.304Z,100552.72
2023-03-24T09:29:10.432Z,100574.81
2023-03-24T09:31:37.929Z,100550.19
2023-03-24T09:34:05.102Z,100546.69
2023-03-24T09:36:32.452Z,100553.09
2023-03-24T09:38:59.775Z,100529.34
2023-03-24T09:41:33.915Z,100572.59
2023-03-24T09:44:14.778Z,100556.59
2023-03-24T09:46:51.202Z,100530.44
2023-03-24T09:49:28.935Z,100565.34
2023-03-24T09:52:05.063Z,100549.63
2023-03-24T09:54:35.148Z,100552.44
2023-03-24T09:57:03.912Z,100528.34
2023-03-24T09:59:39.907Z,100532.16
2023-03-24T10:02:15.482Z,100556.38
2023-03-24T10:04:42.736Z,100538.28
2023-03-24T10:07:35.004Z,100536.16
2023-03-24T10:10:03.166Z,100540.72
2023-03-24T10:12:40.336Z,100544.28
2023-03-24T10:15:37.715Z,100545.53
2023-03-24T10:18:29.085Z,100530.50
2023-03-24T10:20:56.712Z,100548.63
2023-03-24T10:23:27.672Z,100549.91
2023-03-24T10:25:57.985Z,100543.66
2023-03-24T10:28:43.623Z,100533.88
2023-03-24T10:31:14.998Z,100524.19
2023-03-24T10:33:45.266Z,100547.06
2023-03-24T10:36:21.451Z,100547.59
2023-03-24T10:38:48.962Z,100504.59
2023-03-24T10:41:29.569Z,100533.69
2023-03-24T10:43:58.374Z,100529.75
2023-03-24T10:46:29.922Z,100523.53
2023-03-24T10:49:14.500Z,100526.59
2023-03-24T10:51:49.802Z,100542.09
2023-03-24T10:54:29.081Z,100546.44
2023-03-24T10:57:09.765Z,100532.69
2023-03-24T10:59:48.438Z,100526.38
2023-03-24T11:02:22.662Z,100537.44
2023-03-24T11:04:56.259Z,100513.88
2023-03-24T11:07:29.872Z,100536.00
2023-03-24T11:10:21.459Z,100540.28
2023-03-24T11:12:54.685Z,100515.53
2023-03-24T11:16:03.152Z,100528.34
2023-03-24T11:18:30.476Z,100518.34
2023-03-24T11:21:07.110Z,100509.56
2023-03-24T11:24:01.826Z,100501.34
2023-03-24T11:26:35.802Z,100526.38
2023-03-24T11:29:12.989Z,100531.50
2023-03-24T11:31:41.569Z,100509.84
2023-03-24T11:34:16.981Z,100526.75
2023-03-24T11:37:16.320Z,100524.03
2023-03-24T11:39:44.771Z,100500.81
2023-03-24T11:42:12.776Z,100535.19
2023-03-24T11:44:53.607Z,100539.94
2023-03-24T11:47:36.667Z,100538.63
2023-03-24T11:50:22.169Z,100526.38
2023-03-24T11:53:07.878Z,100536.44
2023-03-24T11:55:43.324Z,100529.59
2023-03-24T11:58:13.384Z,100529.19
2023-03-24T12:00:55.927Z,100540.84
2023-03-24T12:03:44.153Z,100512.44
2023-03-24T12:06:29.952Z,100535.28
2023-03-24T12:08:57.101Z,100525.69
2023-03-24T12:11:39.922Z,100502.41
2023-03-24T12:14:09.473Z,100525.19
2023-03-24T12:16:57.427Z,100517.44
2023-03-24T12:19:33.472Z,100518.09
2023-03-24T12:22:39.378Z,100522.75
2023-03-24T12:25:44.127Z,100522.28
2023-03-24T12:28:11.257Z,100521.53
2023-03-24T12:30:44.766Z,100526.03
2023-03-24T12:33:39.505Z,100510.41
2023-03-24T12:36:22.317Z,100513.25
2023-03-24T12:39:12.560Z,100533.91
2023-03-24T12:41:58.123Z,100526.03
2023-03-24T12:44:56.269Z,100525.78
2023-03-24T12:47:26.520Z,100523.41
2023-03-24T12:50:18.312Z,100524.00
2023-03-24T12:53:12.697Z,100533.50
2023-03-24T12:55:48.820Z,100528.19
2023-03-24T12:58:46.835Z,100533.03
2023-03-24T13:01:30.277Z,100529.47
2023-03-24T13:04:11.646Z,100537.22
2023-03-24T13:07:18.830Z,100533.38
2023-03-24T13:09:53.389Z,100535.94
2023-03-24T13:12:24.618Z,100522.75
2023-03-24T13:15:04.519Z,100526.88
2023-03-24T13:17:40.190Z,100515.22
2023-03-24T13:20:14.197Z,100505.16
2023-03-24T13:22:42.942Z,100497.78
2023-03-24T13:25:37.134Z,100501.81
2023-03-24T13:28:14.445Z,100498.69
2023-03-24T13:30:44.379Z,100492.13
2023-03-24T13:33:16.820Z,100498.06
2023-03-24T13:35:53.531Z,100512.13
2023-03-24T13:38:38.782Z,100524.41
2023-03-24T13:41:07.552Z,100528.31
2023-03-24T13:43:35.217Z,100509.91
2023-03-24T13:46:11.996Z,100509.94
2023-03-24T13:48:52.598Z,100519.66
2023-03-24T13:51:22.558Z,100513.97
2023-03-24T13:53:55.873Z,100512.84
2023-03-24T13:56:33.438Z,100501.19
2023-03-24T13:59:03.677Z,100517.97
2023-03-24T14:01:40.261Z,100511.47
2023-03-24T14:04:19.624Z,100522.56
2023-03-24T14:06:54.124Z,100522.81
2023-03-24T14:09:25.522Z,100506.06
2023-03-24T14:11:55.990Z,100528.13
2023-03-24T14:14:26.914Z,100513.59
2023-03-24T14:17:06.325Z,100526.09
2023-03-24T14:20:07.648Z,100508.94
2023-03-24T14:22:39.721Z,100534.44
2023-03-24T14:25:23.389Z,100521.56
2023-03-24T14:27:54.232Z,100477.66
2023-03-24T14:30:31.004Z,100530.03
2023-03-24T14:33:05.122Z,100538.59
2023-03-24T14:35:42.121Z,100514.38
2023-03-24T14:38:15.725Z,100551.69
2023-03-24T14:40:49.698Z,100516.13
2023-03-24T14:43:17.386Z,100543.03
2023-03-24T14:46:05.277Z,100534.19
2023-03-24T14:49:17.011Z,100546.03
2023-03-24T14:51:57.865Z,100543.66
2023-03-24T14:54:51.604Z,100556.13
2023-03-24T14:57:23.777Z,100530.47
2023-03-24T15:00:22.390Z,100549.00
2023-03-24T15:02:54.788Z,100545.34
2023-03-24T15:05:23.492Z,100547.94
2023-03-24T15:08:12.762Z,100516.03
2023-03-24T15:11:04.399Z,100538.22
2023-03-24T15:13:40.520Z,100549.50
2023-03-24T15:16:20.540Z,100527.25
2023-03-24T15:19:01.893Z,100515.50
2023-03-24T15:21:49.318Z,100510.97
2023-03-24T15:24:22.554Z,100556.75
2023-03-24T15:26:53.715Z,100539.91
2023-03-24T15:29:21.324Z,100528.66
2023-03-24T15:31:50.627Z,100551.28
2023-03-24T15:34:51.113Z,100567.22
2023-03-24T15:37:43.225Z,100561.81
2023-03-24T15:40:34.058Z,100538.84
2023-03-24T15:43:08.067Z,100560.00
2023-03-24T15:45:51.006Z,100571.56
2023-03-24T15:48:23.994Z,100570.50
2023-03-24T15:51:05.618Z,100567.69
2023-03-24T15:53:44.917Z,100586.75
2023-03-24T15:56:20.775Z,100577.31
2023-03-24T15:58:51.360Z,100584.44
2023-03-24T16:01:39.505Z,100588.22
2023-03-24T16:04:13.520Z,100544.31
2023-03-24T16:06:48.723Z,100580.72
2023-03-24T16:09:28.418Z,100582.75
2023-03-24T16:12:09.675Z,100531.66
2023-03-24T16:14:40.261Z,100569.44
2023-03-24T16:17:07.654Z,100558.19
2023-03-24T16:19:34.731Z,100567.59
2023-03-24T16:22:02.615Z,100569.41
2023-03-24T16:24:30.792Z,100571.44
2023-03-24T16:26:58.311Z,100575.63
2023-03-24T16:29:25.553Z,100556.81
2023-03-24T16:31:55.802Z,100593.66
2023-03-24T16:34:24.271Z,100603.75
2023-03-24T16:36:53.670Z,100577.56
2023-03-24T16:39:24.289Z,100592.56
2023-03-24T16:41:52.386Z,100585.44
2023-03-24T16:44:20.321Z,100607.19
2023-03-24T16:46:48.999Z,100607.09
2023-03-24T16:49:18.125Z,100616.97
2023-03-24T16:51:46.988Z,100612.25
2023-03-24T16:54:14.784Z,100615.03
2023-03-24T16:56:41.985Z,100614.22
2023-03-24T16:59:09.936Z,100616.09
2023-03-24T17:01:44.584Z,100634.38
2023-03-24T17:04:16.399Z,100634.06
2023-03-24T17:06:47.326Z,100639.81
2023-03-24T17:09:14.868Z,100639.31
2023-03-24T17:11:46.000Z,100640.19
2023-03-24T17:14:13.333Z,100602.25
2023-03-24T17:16:45.741Z,100636.28
2023-03-24T17:19:17.434Z,100636.50
2023-03-24T17:22:02.815Z,100634.97
2023-03-24T17:24:36.073Z,100638.84
2023-03-24T17:27:03.725Z,100636.41
2023-03-24T17:29:31.924Z,100635.16
2023-03-24T17:31:59.140Z,100646.03
2023-03-24T17:34:26.311Z,100638.88
2023-03-24T17:36:53.571Z,100638.41
2023-03-24T17:39:21.645Z,100604.13
2023-03-24T17:41:49.043Z,100632.13
2023-03-24T17:44:16.475Z,100617.63
2023-03-24T17:46:43.728Z,100623.06
2023-03-24T17:49:11.033Z,100644.91
2023-03-24T17:51:38.106Z,100661.75
2023-03-24T17:54:06.456Z,100631.16
2023-03-24T17:56:33.609Z,100620.84
2023-03-24T17:59:00.698Z,100620.56
2023-03-24T18:01:29.866Z,100627.53
2023-03-24T18:03:58.244Z,100636.00
2023-03-24T18:06:27.530Z,100616.84
2023-03-24T18:08:55.035Z,100634.94
2023-03-24T18:11:22.220Z,100622.91
2023-03-24T18:13:50.028Z,100646.13
2023-03-24T18:16:21.782Z,100648.28
2023-03-24T18:18:50.647Z,100638.22
2023-03-24T18:21:21.534Z,100652.84
2023-03-24T18:23:49.329Z,100648.41
2023-03-24T18:26:18.508Z,100626.13
2023-03-24T18:28:46.472Z,100635.03
2023-03-24T18:31:20.282Z,100660.41
2023-03-24T18:33:49.111Z,100638.88
2023-03-24T18:36:21.502Z,100651.09
2023-03-24T18:38:50.958Z,100623.75
2023-03-24T18:41:19.571Z,100620.84
2023-03-24T18:43:48.488Z,100635.38
2023-03-24T18:46:16.794Z,100657.25
2023-03-24T18:48:44.603Z,100654.31
2023-03-24T18:51:12.845Z,100643.66
2023-03-24T18:53:40.495Z,100664.06
2023-03-24T18:56:08.515Z,100670.28
2023-03-24T18:58:38.398Z,100666.22
2023-03-24T19:01:11.461Z,100642.59
2023-03-24T19:03:41.221Z,100639.56
2023-03-24T19:06:11.035Z,100647.69
2023-03-24T19:08:41.206Z,100660.13
2023-03-24T19:11:09.613Z,100659.47
2023-03-24T19:13:37.566Z,100640.13
2023-03-24T19:16:06.550Z,100661.91
2023-03-24T19:18:33.696Z,100627.28
2023-03-24T19:21:02.597Z,100645.31
2023-03-24T19:23:31.293Z,100644.84
2023-03-24T19:25:58.606Z,100625.91
2023-03-24T19:28:29.361Z,100640.53
2023-03-24T19:30:59.389Z,100629.13
2023-03-24T19:33:27.835Z,100605.81
2023-03-24T19:35:55.030Z,100608.19
2023-03-24T19:38:24.212Z,100637.94
2023-03-24T19:40:52.973Z,100623.03
2023-03-24T19:43:24.086Z,100639.94
2023-03-24T19:45:55.384Z,100652.97
2023-03-24T19:48:23.370Z,100646.13
2023-03-24T19:50:53.621Z,100650.47
2023-03-24T19:53:22.046Z,100640.53
2023-03-24T19:55:50.167Z,100650.16
2023-03-24T19:58:18.381Z,100652.34
2023-03-24T20:00:45.750Z,100636.59
2023-03-24T20:03:13.003Z,100623.56
2023-03-24T20:05:40.507Z,100665.00
2023-03-24T20:08:07.628Z,100650.19
2023-03-24T20:10:37.160Z,100641.56
2023-03-24T20:13:04.395Z,100641.19
2023-03-24T20:15:31.694Z,100647.91
2023-03-24T20:17:58.909Z,100648.13
2023-03-24T20:20:26.006Z,100654.44
2023-03-24T20:22:53.350Z,100637.34
2023-03-24T20:25:20.670Z,100654.84
2023-03-24T20:27:48.256Z,100652.88
2023-03-24T20:30:20.273Z,100649.97
2023-03-24T20:32:47.918Z,100644.78
2023-03-24T20:35:16.135Z,100645.50
2023-03-24T20:37:43.530Z,100636.81
2023-03-24T20:40:10.946Z,100636.44
2023-03-24T20:42:40.037Z,100635.69
2023-03-24T20:45:08.549Z,100629.19
2023-03-24T20:47:36.702Z,100647.97
2023-03-24T20:50:06.236Z,100633.28
2023-03-24T20:52:33.591Z,100648.84
2023-03-24T20:55:08.975Z,100649.66
2023-03-24T20:57:36.289Z,100634.44
2023-03-24T21:00:13.868Z,100625.78
2023-03-24T21:02:42.889Z,100626.41
2023-03-24T21:05:10.567Z,100611.69
2023-03-24T21:07:38.533Z,100635.06
2023-03-24T21:10:06.751Z,100641.88
2023-03-24T21:12:35.052Z,100638.47
2023-03-24T21:15:02.406Z,100606.19
2023-03-24T21:17:32.618Z,100610.44
2023-03-24T21:20:14.188Z,100630.00
2023-03-24T21:22:53.301Z,100642.09
2023-03-24T21:25:28.312Z,100634.84
2023-03-24T21:27:56.572Z,100643.06
2023-03-24T21:30:26.109Z,100637.78
2023-03-24T21:33:19.878Z,100600.59
2023-03-24T21:35:47.187Z,100613.41
2023-03-24T21:38:16.063Z,100629.91
2023-03-24T21:40:43.593Z,100620.03
2023-03-24T21:43:12.048Z,100620.44
2023-03-24T21:45:39.088Z,100630.69
2023-03-24T21:48:07.302Z,100650.41
2023-03-24T21:50:38.886Z,100641.41
2023-03-24T21:53:15.040Z,100633.00
2023-03-24T21:55:49.876Z,100622.84
2023-03-24T21:58:16.926Z,100634.16
2023-03-24T22:00:46.582Z,100628.59
2023-03-24T22:03:14.493Z,100623.06
2023-03-24T22:05:42.317Z,100596.50
2023-03-24T22:08:10.658Z,100598.84
2023-03-24T22:10:42.615Z,100633.22
2023-03-24T22:13:10.586Z,100616.22
2023-03-24T22:15:38.153Z,100636.63
2023-03-24T22:18:05.427Z,100615.94
2023-03-24T22:20:33.562Z,100615.41
2023-03-24T22:23:03.674Z,100627.84
2023-03-24T22:25:32.197Z,100641.97
2023-03-24T22:27:59.324Z,100618.41
2023-03-24T22:30:26.649Z,100565.41
2023-03-24T22:32:54.013Z,100627.22
2023-03-24T22:35:23.373Z,100636.97
2023-03-24T22:37:50.691Z,100642.38
2023-03-24T22:40:17.960Z,100610.06
2023-03-24T22:42:45.054Z,100630.09
2023-03-24T22:45:12.231Z,100638.16
2023-03-24T22:47:39.456Z,100626.81
2023-03-24T22:50:09.628Z,100628.34
2023-03-24T22:52:37.278Z,100639.09
2023-03-24T22:55:04.882Z,100635.50
2023-03-24T22:57:32.098Z,100634.34
2023-03-24T23:00:01.984Z,100605.97
2023-03-24T23:02:30.972Z,100639.31
2023-03-24T23:04:58.358Z,100641.59
2023-03-24T23:07:28.268Z,100639.16
2023-03-24T23:09:59.446Z,100646.50
2023-03-24T23:12:26.976Z,100657.22
2023-03-24T23:14:54.603Z,100646.34
2023-03-24T23:17:24.546Z,100642.34
2023-03-24T23:19:52.652Z,100643.66
2023-03-24T23:22:21.314Z,100638.28
2023-03-24T23:24:49.146Z,100566.53
2023-03-24T23:27:16.403Z,100644.09
2023-03-24T23:29:43.783Z,100631.66
2023-03-24T23:32:11.268Z,100613.00
2023-03-24T23:34:38.441Z,100624.84
2023-03-24T23:37:05.551Z,100649.91
2023-03-24T23:39:32.960Z,100634.34
2023-03-24T23:42:00.394Z,100659.03
2023-03-24T23:44:27.830Z,100651.63
2023-03-24T23:46:55.067Z,100646.13
2023-03-24T23:49:22.642Z,100629.91
2023-03-24T23:51:49.858Z,100635.25
2023-03-24T23:54:17.633Z,100633.75
2023-03-24T23:56:47.192Z,100632.50
2023-03-24T23:59:14.889Z,100624.13
